sensor_id;sensor_type;location;lat;lon;timestamp;temperature;humidity
23562;DHT22;11959;49.418;8.728;2023-05-10T00:00:23;14.50;99.90
23562;DHT22;11959;49.418;8.728;2023-05-10T00:02:49;14.50;99.90
23562;DHT22;11959;49.418;8.728;2023-05-10T00:05:15;14.60;99.90
23562;DHT22;11959;49.418;8.728;2023-05-10T00:07:41;14.50;99.90
23562;DHT22;11959;49.418;8.728;2023-05-10T00:10:10;14.50;99.90
23562;DHT22;11959;49.418;8.728;2023-05-10T00:12:36;14.50;99.90
23562;DHT22;11959;49.418;8.728;2023-05-10T00:15:02;14.50;99.90
23562;DHT22;11959;49.418;8.728;2023-05-10T00:17:28;14.50;99.90
23562;DHT22;11959;49.418;8.728;2023-05-10T00:19:53;14.40;99.90
23562;DHT22;11959;49.418;8.728;2023-05-10T00:22:19;14.40;99.90
23562;DHT22;11959;49.418;8.728;2023-05-10T00:24:45;14.40;99.90
23562;DHT22;11959;49.418;8.728;2023-05-10T00:27:11;14.50;99.90
23562;DHT22;11959;49.418;8.728;2023-05-10T00:29:36;14.50;99.90
23562;DHT22;11959;49.418;8.728;2023-05-10T00:32:02;14.50;99.90
23562;DHT22;11959;49.418;8.728;2023-05-10T00:34:28;14.40;99.90
23562;DHT22;11959;49.418;8.728;2023-05-10T00:36:53;14.40;99.90
23562;DHT22;11959;49.418;8.728;2023-05-10T00:39:19;14.40;99.90
23562;DHT22;11959;49.418;8.728;2023-05-10T00:41:45;14.40;99.90
23562;DHT22;11959;49.418;8.728;2023-05-10T00:44:11;14.30;99.90
23562;DHT22;11959;49.418;8.728;2023-05-10T00:46:36;14.30;99.90
23562;DHT22;11959;49.418;8.728;2023-05-10T00:49:02;14.30;99.90
23562;DHT22;11959;49.418;8.728;2023-05-10T00:51:28;14.30;99.90
23562;DHT22;11959;49.418;8.728;2023-05-10T00:53:53;14.30;99.90
23562;DHT22;11959;49.418;8.728;2023-05-10T00:56:21;14.30;99.90
23562;DHT22;11959;49.418;8.728;2023-05-10T00:58:48;14.20;99.90
23562;DHT22;11959;49.418;8.728;2023-05-10T01:01:14;14.20;99.90
23562;DHT22;11959;49.418;8.728;2023-05-10T01:03:40;14.20;99.90
23562;DHT22;11959;49.418;8.728;2023-05-10T01:06:07;14.20;99.90
23562;DHT22;11959;49.418;8.728;2023-05-10T01:08:33;14.20;99.90
23562;DHT22;11959;49.418;8.728;2023-05-10T01:10:59;14.30;99.90
23562;DHT22;11959;49.418;8.728;2023-05-10T01:13:33;14.30;99.90
23562;DHT22;11959;49.418;8.728;2023-05-10T01:16:00;14.30;99.90
23562;DHT22;11959;49.418;8.728;2023-05-10T01:18:29;14.20;99.90
23562;DHT22;11959;49.418;8.728;2023-05-10T01:35:32;14.20;99.90
23562;DHT22;11959;49.418;8.728;2023-05-10T01:43:19;14.10;99.90
23562;DHT22;11959;49.418;8.728;2023-05-10T01:48:15;14.10;99.90
23562;DHT22;11959;49.418;8.728;2023-05-10T01:50:43;14.10;99.90
23562;DHT22;11959;49.418;8.728;2023-05-10T01:53:12;14.10;99.90
23562;DHT22;11959;49.418;8.728;2023-05-10T01:55:50;14.10;99.90
23562;DHT22;11959;49.418;8.728;2023-05-10T01:58:21;14.20;99.90
23562;DHT22;11959;49.418;8.728;2023-05-10T02:00:49;14.10;99.90
23562;DHT22;11959;49.418;8.728;2023-05-10T02:03:18;14.10;99.90
23562;DHT22;11959;49.418;8.728;2023-05-10T02:05:46;14.10;99.90
23562;DHT22;11959;49.418;8.728;2023-05-10T02:08:13;14.10;99.90
23562;DHT22;11959;49.418;8.728;2023-05-10T02:10:42;14.10;99.90
23562;DHT22;11959;49.418;8.728;2023-05-10T02:13:11;14.10;99.90
23562;DHT22;11959;49.418;8.728;2023-05-10T02:15:38;14.10;99.90
23562;DHT22;11959;49.418;8.728;2023-05-10T02:18:06;14.10;99.90
23562;DHT22;11959;49.418;8.728;2023-05-10T02:20:33;14.00;99.90
23562;DHT22;11959;49.418;8.728;2023-05-10T02:23:00;14.00;99.90
23562;DHT22;11959;49.418;8.728;2023-05-10T02:25:27;14.10;99.90
23562;DHT22;11959;49.418;8.728;2023-05-10T02:27:55;14.10;99.90
23562;DHT22;11959;49.418;8.728;2023-05-10T02:30:22;14.10;99.90
23562;DHT22;11959;49.418;8.728;2023-05-10T02:32:49;14.10;99.90
23562;DHT22;11959;49.418;8.728;2023-05-10T02:35:16;14.10;99.90
23562;DHT22;11959;49.418;8.728;2023-05-10T02:37:43;14.10;99.90
23562;DHT22;11959;49.418;8.728;2023-05-10T02:40:11;14.10;99.90
23562;DHT22;11959;49.418;8.728;2023-05-10T02:42:42;14.10;99.90
23562;DHT22;11959;49.418;8.728;2023-05-10T02:45:12;14.10;99.90
23562;DHT22;11959;49.418;8.728;2023-05-10T02:47:38;14.10;99.90
23562;DHT22;11959;49.418;8.728;2023-05-10T02:50:04;14.10;99.90
23562;DHT22;11959;49.418;8.728;2023-05-10T02:52:39;14.20;99.90
23562;DHT22;11959;49.418;8.728;2023-05-10T02:55:05;14.10;99.90
23562;DHT22;11959;49.418;8.728;2023-05-10T02:57:35;14.20;99.90
23562;DHT22;11959;49.418;8.728;2023-05-10T03:00:04;14.10;99.90
23562;DHT22;11959;49.418;8.728;2023-05-10T03:02:30;14.10;99.90
23562;DHT22;11959;49.418;8.728;2023-05-10T03:04:56;14.10;99.90
23562;DHT22;11959;49.418;8.728;2023-05-10T03:07:22;14.10;99.90
23562;DHT22;11959;49.418;8.728;2023-05-10T03:09:49;14.10;99.90
23562;DHT22;11959;49.418;8.728;2023-05-10T03:15:42;14.10;99.90
23562;DHT22;11959;49.418;8.728;2023-05-10T03:21:04;14.10;99.90
23562;DHT22;11959;49.418;8.728;2023-05-10T03:23:59;14.00;99.90
23562;DHT22;11959;49.418;8.728;2023-05-10T03:26:27;14.00;99.90
23562;DHT22;11959;49.418;8.728;2023-05-10T03:28:55;14.00;99.90
23562;DHT22;11959;49.418;8.728;2023-05-10T03:31:21;13.90;99.90
23562;DHT22;11959;49.418;8.728;2023-05-10T03:33:48;13.90;99.90
23562;DHT22;11959;49.418;8.728;2023-05-10T03:36:14;14.00;99.90
23562;DHT22;11959;49.418;8.728;2023-05-10T03:38:39;13.90;99.90
23562;DHT22;11959;49.418;8.728;2023-05-10T03:41:05;14.00;99.90
23562;DHT22;11959;49.418;8.728;2023-05-10T03:43:31;14.00;99.90
23562;DHT22;11959;49.418;8.728;2023-05-10T03:45:56;14.00;99.90
23562;DHT22;11959;49.418;8.728;2023-05-10T03:48:22;14.00;99.90
23562;DHT22;11959;49.418;8.728;2023-05-10T03:50:47;14.00;99.90
23562;DHT22;11959;49.418;8.728;2023-05-10T03:53:15;14.00;99.90
23562;DHT22;11959;49.418;8.728;2023-05-10T03:55:40;13.90;99.90
23562;DHT22;11959;49.418;8.728;2023-05-10T03:58:06;13.90;99.90
23562;DHT22;11959;49.418;8.728;2023-05-10T04:00:32;14.00;99.90
23562;DHT22;11959;49.418;8.728;2023-05-10T04:02:58;13.90;99.90
23562;DHT22;11959;49.418;8.728;2023-05-10T04:05:24;13.90;99.90
23562;DHT22;11959;49.418;8.728;2023-05-10T04:07:49;13.90;99.90
23562;DHT22;11959;49.418;8.728;2023-05-10T04:10:16;13.80;99.90
23562;DHT22;11959;49.418;8.728;2023-05-10T04:12:42;13.80;99.90
23562;DHT22;11959;49.418;8.728;2023-05-10T04:15:08;13.80;99.90
23562;DHT22;11959;49.418;8.728;2023-05-10T04:17:33;13.80;99.90
23562;DHT22;11959;49.418;8.728;2023-05-10T04:19:59;13.80;99.90
23562;DHT22;11959;49.418;8.728;2023-05-10T04:22:25;13.80;99.90
23562;DHT22;11959;49.418;8.728;2023-05-10T04:24:50;13.90;99.90
23562;DHT22;11959;49.418;8.728;2023-05-10T04:27:16;13.90;99.90
23562;DHT22;11959;49.418;8.728;2023-05-10T04:29:42;13.90;99.90
23562;DHT22;11959;49.418;8.728;2023-05-10T04:32:08;13.80;99.90
23562;DHT22;11959;49.418;8.728;2023-05-10T04:34:36;13.90;99.90
23562;DHT22;11959;49.418;8.728;2023-05-10T04:37:01;13.90;99.90
23562;DHT22;11959;49.418;8.728;2023-05-10T04:39:27;13.90;99.90
23562;DHT22;11959;49.418;8.728;2023-05-10T04:41:52;13.90;99.90
23562;DHT22;11959;49.418;8.728;2023-05-10T04:44:18;13.90;99.90
23562;DHT22;11959;49.418;8.728;2023-05-10T04:46:44;13.80;99.90
23562;DHT22;11959;49.418;8.728;2023-05-10T04:49:10;13.90;99.90
23562;DHT22;11959;49.418;8.728;2023-05-10T04:51:35;13.90;99.90
23562;DHT22;11959;49.418;8.728;2023-05-10T04:54:01;13.90;99.90
23562;DHT22;11959;49.418;8.728;2023-05-10T04:56:27;13.90;99.90
23562;DHT22;11959;49.418;8.728;2023-05-10T04:58:53;13.90;99.90
23562;DHT22;11959;49.418;8.728;2023-05-10T05:01:18;13.90;99.90
23562;DHT22;11959;49.418;8.728;2023-05-10T05:03:45;13.90;99.90
23562;DHT22;11959;49.418;8.728;2023-05-10T05:06:15;13.90;99.90
23562;DHT22;11959;49.418;8.728;2023-05-10T05:08:41;13.90;99.90
23562;DHT22;11959;49.418;8.728;2023-05-10T05:11:07;13.90;99.90
23562;DHT22;11959;49.418;8.728;2023-05-10T05:13:32;13.90;99.90
23562;DHT22;11959;49.418;8.728;2023-05-10T05:16:03;13.90;99.90
23562;DHT22;11959;49.418;8.728;2023-05-10T05:18:29;14.00;99.90
23562;DHT22;11959;49.418;8.728;2023-05-10T05:20:55;13.90;99.90
23562;DHT22;11959;49.418;8.728;2023-05-10T05:23:20;14.00;99.90
23562;DHT22;11959;49.418;8.728;2023-05-10T05:25:52;14.00;99.90
23562;DHT22;11959;49.418;8.728;2023-05-10T05:28:21;14.00;99.90
23562;DHT22;11959;49.418;8.728;2023-05-10T05:30:47;14.00;99.90
23562;DHT22;11959;49.418;8.728;2023-05-10T05:33:16;14.00;99.90
23562;DHT22;11959;49.418;8.728;2023-05-10T05:35:42;14.00;99.90
23562;DHT22;11959;49.418;8.728;2023-05-10T05:38:12;14.00;99.90
23562;DHT22;11959;49.418;8.728;2023-05-10T05:40:38;14.10;99.90
23562;DHT22;11959;49.418;8.728;2023-05-10T05:43:04;14.10;99.90
23562;DHT22;11959;49.418;8.728;2023-05-10T05:45:29;14.10;99.90
23562;DHT22;11959;49.418;8.728;2023-05-10T05:47:55;14.10;99.90
23562;DHT22;11959;49.418;8.728;2023-05-10T05:50:21;14.10;99.90
23562;DHT22;11959;49.418;8.728;2023-05-10T05:52:47;14.20;99.90
23562;DHT22;11959;49.418;8.728;2023-05-10T05:55:13;14.20;99.90
23562;DHT22;11959;49.418;8.728;2023-05-10T05:57:39;14.30;99.90
23562;DHT22;11959;49.418;8.728;2023-05-10T06:00:05;14.30;99.90
23562;DHT22;11959;49.418;8.728;2023-05-10T06:02:31;14.30;99.90
23562;DHT22;11959;49.418;8.728;2023-05-10T06:04:57;14.30;99.90
23562;DHT22;11959;49.418;8.728;2023-05-10T06:07:22;14.30;99.90
23562;DHT22;11959;49.418;8.728;2023-05-10T06:09:48;14.40;99.90
23562;DHT22;11959;49.418;8.728;2023-05-10T06:12:14;14.40;99.90
23562;DHT22;11959;49.418;8.728;2023-05-10T06:14:39;14.40;99.90
23562;DHT22;11959;49.418;8.728;2023-05-10T06:17:05;14.40;99.90
23562;DHT22;11959;49.418;8.728;2023-05-10T06:19:32;14.40;99.90
23562;DHT22;11959;49.418;8.728;2023-05-10T06:21:57;14.50;99.90
23562;DHT22;11959;49.418;8.728;2023-05-10T06:24:23;14.50;99.90
23562;DHT22;11959;49.418;8.728;2023-05-10T06:26:49;14.50;99.90
23562;DHT22;11959;49.418;8.728;2023-05-10T06:29:15;14.50;99.90
23562;DHT22;11959;49.418;8.728;2023-05-10T06:31:41;14.40;99.90
23562;DHT22;11959;49.418;8.728;2023-05-10T06:34:07;14.40;99.90
23562;DHT22;11959;49.418;8.728;2023-05-10T06:36:33;14.40;99.90
23562;DHT22;11959;49.418;8.728;2023-05-10T06:38:59;14.40;99.90
23562;DHT22;11959;49.418;8.728;2023-05-10T06:41:25;14.40;99.90
23562;DHT22;11959;49.418;8.728;2023-05-10T06:43:52;14.50;99.90
23562;DHT22;11959;49.418;8.728;2023-05-10T06:46:19;14.50;99.90
23562;DHT22;11959;49.418;8.728;2023-05-10T06:48:44;14.50;99.90
23562;DHT22;11959;49.418;8.728;2023-05-10T06:51:10;14.50;99.90
23562;DHT22;11959;49.418;8.728;2023-05-10T06:53:36;14.50;99.90
23562;DHT22;11959;49.418;8.728;2023-05-10T06:56:02;14.60;99.90
23562;DHT22;11959;49.418;8.728;2023-05-10T06:58:28;14.60;99.90
23562;DHT22;11959;49.418;8.728;2023-05-10T07:00:54;14.60;99.90
23562;DHT22;11959;49.418;8.728;2023-05-10T07:03:19;14.60;99.90
23562;DHT22;11959;49.418;8.728;2023-05-10T07:05:45;14.70;99.90
23562;DHT22;11959;49.418;8.728;2023-05-10T07:08:11;14.70;99.90
23562;DHT22;11959;49.418;8.728;2023-05-10T07:10:36;14.70;99.90
23562;DHT22;11959;49.418;8.728;2023-05-10T07:13:02;14.70;99.90
23562;DHT22;11959;49.418;8.728;2023-05-10T07:15:28;14.70;99.90
23562;DHT22;11959;49.418;8.728;2023-05-10T07:17:53;14.80;99.90
23562;DHT22;11959;49.418;8.728;2023-05-10T07:20:19;14.80;99.90
23562;DHT22;11959;49.418;8.728;2023-05-10T07:22:45;14.80;99.90
23562;DHT22;11959;49.418;8.728;2023-05-10T07:25:10;14.80;99.90
23562;DHT22;11959;49.418;8.728;2023-05-10T07:27:36;14.90;99.90
23562;DHT22;11959;49.418;8.728;2023-05-10T07:30:02;14.90;99.90
23562;DHT22;11959;49.418;8.728;2023-05-10T07:32:27;15.00;99.90
23562;DHT22;11959;49.418;8.728;2023-05-10T07:34:53;15.00;99.90
23562;DHT22;11959;49.418;8.728;2023-05-10T07:37:19;15.10;99.90
23562;DHT22;11959;49.418;8.728;2023-05-10T07:39:45;15.10;99.90
23562;DHT22;11959;49.418;8.728;2023-05-10T07:42:10;15.20;99.90
23562;DHT22;11959;49.418;8.728;2023-05-10T07:44:36;15.30;99.90
23562;DHT22;11959;49.418;8.728;2023-05-10T07:47:01;15.30;99.90
23562;DHT22;11959;49.418;8.728;2023-05-10T07:49:27;15.30;99.90
23562;DHT22;11959;49.418;8.728;2023-05-10T07:51:53;15.40;99.90
23562;DHT22;11959;49.418;8.728;2023-05-10T07:54:18;15.50;99.90
23562;DHT22;11959;49.418;8.728;2023-05-10T07:56:44;15.50;99.90
23562;DHT22;11959;49.418;8.728;2023-05-10T07:59:16;15.50;99.90
23562;DHT22;11959;49.418;8.728;2023-05-10T08:01:42;15.60;99.90
23562;DHT22;11959;49.418;8.728;2023-05-10T08:04:08;15.60;99.90
23562;DHT22;11959;49.418;8.728;2023-05-10T08:06:34;15.70;99.90
23562;DHT22;11959;49.418;8.728;2023-05-10T08:09:00;15.70;99.90
23562;DHT22;11959;49.418;8.728;2023-05-10T08:11:25;15.70;99.90
23562;DHT22;11959;49.418;8.728;2023-05-10T08:13:53;15.70;99.90
23562;DHT22;11959;49.418;8.728;2023-05-10T08:16:19;15.70;99.90
23562;DHT22;11959;49.418;8.728;2023-05-10T08:18:46;15.70;99.90
23562;DHT22;11959;49.418;8.728;2023-05-10T08:21:13;15.80;99.90
23562;DHT22;11959;49.418;8.728;2023-05-10T08:23:39;15.80;99.90
23562;DHT22;11959;49.418;8.728;2023-05-10T08:26:04;15.80;99.90
23562;DHT22;11959;49.418;8.728;2023-05-10T08:28:30;15.80;99.90
23562;DHT22;11959;49.418;8.728;2023-05-10T08:30:56;15.80;99.90
23562;DHT22;11959;49.418;8.728;2023-05-10T08:33:22;15.90;99.90
23562;DHT22;11959;49.418;8.728;2023-05-10T08:35:47;16.00;99.90
23562;DHT22;11959;49.418;8.728;2023-05-10T08:38:13;16.00;99.90
23562;DHT22;11959;49.418;8.728;2023-05-10T08:40:43;16.20;99.90
23562;DHT22;11959;49.418;8.728;2023-05-10T08:43:10;16.20;99.90
23562;DHT22;11959;49.418;8.728;2023-05-10T08:45:40;16.30;99.90
23562;DHT22;11959;49.418;8.728;2023-05-10T08:48:07;16.40;99.90
23562;DHT22;11959;49.418;8.728;2023-05-10T08:50:36;16.40;99.90
23562;DHT22;11959;49.418;8.728;2023-05-10T08:53:04;16.40;99.90
23562;DHT22;11959;49.418;8.728;2023-05-10T08:55:32;16.30;99.90
23562;DHT22;11959;49.418;8.728;2023-05-10T08:57:59;16.30;99.90
23562;DHT22;11959;49.418;8.728;2023-05-10T09:00:27;16.30;99.90
23562;DHT22;11959;49.418;8.728;2023-05-10T09:02:53;16.40;99.90
23562;DHT22;11959;49.418;8.728;2023-05-10T09:05:19;16.30;99.90
23562;DHT22;11959;49.418;8.728;2023-05-10T09:07:45;16.30;99.90
23562;DHT22;11959;49.418;8.728;2023-05-10T09:10:13;16.40;99.90
23562;DHT22;11959;49.418;8.728;2023-05-10T09:12:38;16.50;99.90
23562;DHT22;11959;49.418;8.728;2023-05-10T09:15:06;16.50;99.90
23562;DHT22;11959;49.418;8.728;2023-05-10T09:17:32;16.50;99.90
23562;DHT22;11959;49.418;8.728;2023-05-10T09:19:59;16.50;99.90
23562;DHT22;11959;49.418;8.728;2023-05-10T09:22:25;16.50;99.90
23562;DHT22;11959;49.418;8.728;2023-05-10T09:25:09;16.50;99.90
23562;DHT22;11959;49.418;8.728;2023-05-10T09:27:39;16.50;99.90
23562;DHT22;11959;49.418;8.728;2023-05-10T09:30:10;16.50;99.90
23562;DHT22;11959;49.418;8.728;2023-05-10T09:32:40;16.40;99.90
23562;DHT22;11959;49.418;8.728;2023-05-10T09:35:13;16.40;99.90
23562;DHT22;11959;49.418;8.728;2023-05-10T09:37:45;16.30;99.90
23562;DHT22;11959;49.418;8.728;2023-05-10T09:40:23;16.20;99.90
23562;DHT22;11959;49.418;8.728;2023-05-10T09:43:02;16.20;99.90
23562;DHT22;11959;49.418;8.728;2023-05-10T09:45:31;16.10;99.90
23562;DHT22;11959;49.418;8.728;2023-05-10T09:47:57;16.10;99.90
23562;DHT22;11959;49.418;8.728;2023-05-10T09:50:24;16.10;99.90
23562;DHT22;11959;49.418;8.728;2023-05-10T09:53:01;16.10;99.90
23562;DHT22;11959;49.418;8.728;2023-05-10T09:55:41;16.20;99.90
23562;DHT22;11959;49.418;8.728;2023-05-10T09:58:10;16.20;99.90
23562;DHT22;11959;49.418;8.728;2023-05-10T10:00:38;16.30;99.90
23562;DHT22;11959;49.418;8.728;2023-05-10T10:03:04;16.30;99.90
23562;DHT22;11959;49.418;8.728;2023-05-10T10:05:34;16.40;99.90
23562;DHT22;11959;49.418;8.728;2023-05-10T10:08:05;16.40;99.90
23562;DHT22;11959;49.418;8.728;2023-05-10T10:10:32;16.40;99.90
23562;DHT22;11959;49.418;8.728;2023-05-10T10:12:58;16.40;99.90
23562;DHT22;11959;49.418;8.728;2023-05-10T10:15:25;16.40;99.90
23562;DHT22;11959;49.418;8.728;2023-05-10T10:17:51;16.30;99.90
23562;DHT22;11959;49.418;8.728;2023-05-10T10:20:19;16.40;99.90
23562;DHT22;11959;49.418;8.728;2023-05-10T10:22:45;16.40;99.90
23562;DHT22;11959;49.418;8.728;2023-05-10T10:25:12;16.50;99.90
23562;DHT22;11959;49.418;8.728;2023-05-10T10:30:30;16.40;99.90
23562;DHT22;11959;49.418;8.728;2023-05-10T10:35:29;16.40;99.90
23562;DHT22;11959;49.418;8.728;2023-05-10T10:37:56;16.40;99.90
23562;DHT22;11959;49.418;8.728;2023-05-10T10:40:30;16.20;99.90
23562;DHT22;11959;49.418;8.728;2023-05-10T10:42:57;16.00;99.90
23562;DHT22;11959;49.418;8.728;2023-05-10T10:45:25;15.90;99.90
23562;DHT22;11959;49.418;8.728;2023-05-10T10:48:20;15.70;99.90
23562;DHT22;11959;49.418;8.728;2023-05-10T10:50:46;15.60;99.90
23562;DHT22;11959;49.418;8.728;2023-05-10T10:53:12;15.60;99.90
23562;DHT22;11959;49.418;8.728;2023-05-10T10:55:47;15.60;99.90
23562;DHT22;11959;49.418;8.728;2023-05-10T10:58:29;15.60;99.90
23562;DHT22;11959;49.418;8.728;2023-05-10T11:01:15;15.70;99.90
23562;DHT22;11959;49.418;8.728;2023-05-10T11:06:33;15.80;99.90
23562;DHT22;11959;49.418;8.728;2023-05-10T11:09:09;15.90;99.90
23562;DHT22;11959;49.418;8.728;2023-05-10T11:11:36;16.00;99.90
23562;DHT22;11959;49.418;8.728;2023-05-10T11:14:13;16.10;99.90
23562;DHT22;11959;49.418;8.728;2023-05-10T11:16:43;16.20;99.90
23562;DHT22;11959;49.418;8.728;2023-05-10T11:19:11;16.30;99.90
23562;DHT22;11959;49.418;8.728;2023-05-10T11:21:50;16.50;99.90
23562;DHT22;11959;49.418;8.728;2023-05-10T11:24:22;16.60;99.90
23562;DHT22;11959;49.418;8.728;2023-05-10T11:26:50;16.80;99.90
23562;DHT22;11959;49.418;8.728;2023-05-10T11:29:19;16.90;99.90
23562;DHT22;11959;49.418;8.728;2023-05-10T11:31:49;17.10;99.90
23562;DHT22;11959;49.418;8.728;2023-05-10T11:34:29;17.20;99.90
23562;DHT22;11959;49.418;8.728;2023-05-10T11:37:00;17.20;99.90
23562;DHT22;11959;49.418;8.728;2023-05-10T11:39:30;17.20;99.90
23562;DHT22;11959;49.418;8.728;2023-05-10T11:41:57;17.30;99.90
23562;DHT22;11959;49.418;8.728;2023-05-10T11:44:28;17.20;99.90
23562;DHT22;11959;49.418;8.728;2023-05-10T11:46:54;17.20;99.90
23562;DHT22;11959;49.418;8.728;2023-05-10T11:49:20;17.20;99.90
23562;DHT22;11959;49.418;8.728;2023-05-10T11:51:48;17.20;99.90
23562;DHT22;11959;49.418;8.728;2023-05-10T11:54:14;17.20;99.90
23562;DHT22;11959;49.418;8.728;2023-05-10T11:56:40;17.20;99.90
23562;DHT22;11959;49.418;8.728;2023-05-10T11:59:06;17.20;99.90
23562;DHT22;11959;49.418;8.728;2023-05-10T12:01:33;17.10;99.90
23562;DHT22;11959;49.418;8.728;2023-05-10T12:03:59;17.20;99.90
23562;DHT22;11959;49.418;8.728;2023-05-10T12:06:31;17.40;99.90
23562;DHT22;11959;49.418;8.728;2023-05-10T12:08:58;17.50;99.90
23562;DHT22;11959;49.418;8.728;2023-05-10T12:11:28;17.70;99.90
23562;DHT22;11959;49.418;8.728;2023-05-10T12:13:54;17.90;99.90
23562;DHT22;11959;49.418;8.728;2023-05-10T12:16:28;18.00;99.90
23562;DHT22;11959;49.418;8.728;2023-05-10T12:18:57;18.10;99.90
23562;DHT22;11959;49.418;8.728;2023-05-10T12:21:23;18.30;99.90
23562;DHT22;11959;49.418;8.728;2023-05-10T12:23:51;18.40;99.90
23562;DHT22;11959;49.418;8.728;2023-05-10T12:26:17;18.40;99.90
23562;DHT22;11959;49.418;8.728;2023-05-10T12:28:42;18.40;99.90
23562;DHT22;11959;49.418;8.728;2023-05-10T12:31:08;18.40;99.90
23562;DHT22;11959;49.418;8.728;2023-05-10T12:33:41;18.40;99.90
23562;DHT22;11959;49.418;8.728;2023-05-10T12:36:11;18.20;99.90
23562;DHT22;11959;49.418;8.728;2023-05-10T12:38:45;18.10;99.90
23562;DHT22;11959;49.418;8.728;2023-05-10T12:41:18;18.10;99.90
23562;DHT22;11959;49.418;8.728;2023-05-10T12:43:44;18.00;99.90
23562;DHT22;11959;49.418;8.728;2023-05-10T12:46:15;18.00;99.90
23562;DHT22;11959;49.418;8.728;2023-05-10T12:48:43;18.00;99.90
23562;DHT22;11959;49.418;8.728;2023-05-10T12:51:10;18.10;99.90
23562;DHT22;11959;49.418;8.728;2023-05-10T12:53:39;18.10;99.90
23562;DHT22;11959;49.418;8.728;2023-05-10T12:56:05;18.10;99.90
23562;DHT22;11959;49.418;8.728;2023-05-10T12:58:31;18.10;99.90
23562;DHT22;11959;49.418;8.728;2023-05-10T13:00:58;18.20;99.90
23562;DHT22;11959;49.418;8.728;2023-05-10T13:03:24;18.30;99.90
23562;DHT22;11959;49.418;8.728;2023-05-10T13:05:49;18.40;99.90
23562;DHT22;11959;49.418;8.728;2023-05-10T13:08:15;18.50;99.90
23562;DHT22;11959;49.418;8.728;2023-05-10T13:10:41;18.50;99.90
23562;DHT22;11959;49.418;8.728;2023-05-10T13:13:06;18.60;99.90
23562;DHT22;11959;49.418;8.728;2023-05-10T13:15:33;18.70;99.90
23562;DHT22;11959;49.418;8.728;2023-05-10T13:17:59;18.60;99.90
23562;DHT22;11959;49.418;8.728;2023-05-10T13:20:25;18.60;99.90
23562;DHT22;11959;49.418;8.728;2023-05-10T13:22:51;18.50;99.90
23562;DHT22;11959;49.418;8.728;2023-05-10T13:25:17;18.50;99.90
23562;DHT22;11959;49.418;8.728;2023-05-10T13:27:42;18.60;99.90
23562;DHT22;11959;49.418;8.728;2023-05-10T13:30:08;18.60;99.90
23562;DHT22;11959;49.418;8.728;2023-05-10T13:32:35;18.50;99.90
23562;DHT22;11959;49.418;8.728;2023-05-10T13:35:01;18.40;99.90
23562;DHT22;11959;49.418;8.728;2023-05-10T13:37:29;18.50;99.90
23562;DHT22;11959;49.418;8.728;2023-05-10T13:39:55;18.60;99.90
23562;DHT22;11959;49.418;8.728;2023-05-10T13:42:22;18.60;99.90
23562;DHT22;11959;49.418;8.728;2023-05-10T13:44:50;18.60;99.90
23562;DHT22;11959;49.418;8.728;2023-05-10T13:47:15;18.60;99.90
23562;DHT22;11959;49.418;8.728;2023-05-10T13:49:41;18.60;99.90
23562;DHT22;11959;49.418;8.728;2023-05-10T13:52:07;18.50;99.90
23562;DHT22;11959;49.418;8.728;2023-05-10T13:54:38;18.50;99.90
23562;DHT22;11959;49.418;8.728;2023-05-10T13:57:03;18.50;99.90
23562;DHT22;11959;49.418;8.728;2023-05-10T13:59:30;18.50;99.90
23562;DHT22;11959;49.418;8.728;2023-05-10T14:01:57;18.40;99.90
23562;DHT22;11959;49.418;8.728;2023-05-10T14:04:23;18.30;99.90
23562;DHT22;11959;49.418;8.728;2023-05-10T14:06:49;18.20;99.90
23562;DHT22;11959;49.418;8.728;2023-05-10T14:09:15;18.30;99.90
23562;DHT22;11959;49.418;8.728;2023-05-10T14:11:41;18.20;99.90
23562;DHT22;11959;49.418;8.728;2023-05-10T14:14:09;18.30;99.90
23562;DHT22;11959;49.418;8.728;2023-05-10T14:16:35;18.30;99.90
23562;DHT22;11959;49.418;8.728;2023-05-10T14:19:00;18.20;99.90
23562;DHT22;11959;49.418;8.728;2023-05-10T14:21:27;18.30;99.90
23562;DHT22;11959;49.418;8.728;2023-05-10T14:23:55;18.30;99.90
23562;DHT22;11959;49.418;8.728;2023-05-10T14:26:21;18.20;99.90
23562;DHT22;11959;49.418;8.728;2023-05-10T14:28:47;18.20;99.90
23562;DHT22;11959;49.418;8.728;2023-05-10T14:31:12;18.10;99.90
23562;DHT22;11959;49.418;8.728;2023-05-10T14:33:40;18.20;99.90
23562;DHT22;11959;49.418;8.728;2023-05-10T14:36:06;18.20;99.90
23562;DHT22;11959;49.418;8.728;2023-05-10T14:38:32;18.20;99.90
23562;DHT22;11959;49.418;8.728;2023-05-10T14:40:58;18.20;99.90
23562;DHT22;11959;49.418;8.728;2023-05-10T14:43:23;18.20;99.90
23562;DHT22;11959;49.418;8.728;2023-05-10T14:45:49;18.20;99.90
23562;DHT22;11959;49.418;8.728;2023-05-10T14:48:15;18.30;99.90
23562;DHT22;11959;49.418;8.728;2023-05-10T14:50:43;18.30;99.90
23562;DHT22;11959;49.418;8.728;2023-05-10T14:53:09;18.40;99.90
23562;DHT22;11959;49.418;8.728;2023-05-10T14:55:34;18.30;99.90
23562;DHT22;11959;49.418;8.728;2023-05-10T14:58:03;18.30;99.90
23562;DHT22;11959;49.418;8.728;2023-05-10T15:00:30;18.30;99.90
23562;DHT22;11959;49.418;8.728;2023-05-10T15:02:56;18.30;99.90
23562;DHT22;11959;49.418;8.728;2023-05-10T15:05:22;18.20;99.90
23562;DHT22;11959;49.418;8.728;2023-05-10T15:07:47;18.20;99.90
23562;DHT22;11959;49.418;8.728;2023-05-10T15:10:13;18.10;99.90
23562;DHT22;11959;49.418;8.728;2023-05-10T15:12:39;18.10;99.90
23562;DHT22;11959;49.418;8.728;2023-05-10T15:15:06;18.10;99.90
23562;DHT22;11959;49.418;8.728;2023-05-10T15:17:32;18.20;99.90
23562;DHT22;11959;49.418;8.728;2023-05-10T15:19:57;18.20;99.90
23562;DHT22;11959;49.418;8.728;2023-05-10T15:22:23;18.10;99.90
23562;DHT22;11959;49.418;8.728;2023-05-10T15:24:49;18.10;99.90
23562;DHT22;11959;49.418;8.728;2023-05-10T15:27:15;18.20;99.90
23562;DHT22;11959;49.418;8.728;2023-05-10T15:29:40;18.10;99.90
23562;DHT22;11959;49.418;8.728;2023-05-10T15:32:06;18.00;99.90
23562;DHT22;11959;49.418;8.728;2023-05-10T15:34:32;18.00;99.90
23562;DHT22;11959;49.418;8.728;2023-05-10T15:36:58;18.00;99.90
23562;DHT22;11959;49.418;8.728;2023-05-10T15:39:24;18.00;99.90
23562;DHT22;11959;49.418;8.728;2023-05-10T15:41:50;18.00;99.90
23562;DHT22;11959;49.418;8.728;2023-05-10T15:44:16;18.00;99.90
23562;DHT22;11959;49.418;8.728;2023-05-10T15:46:42;18.00;99.90
23562;DHT22;11959;49.418;8.728;2023-05-10T15:49:07;18.00;99.90
23562;DHT22;11959;49.418;8.728;2023-05-10T15:51:33;18.10;99.90
23562;DHT22;11959;49.418;8.728;2023-05-10T15:53:59;18.10;99.90
23562;DHT22;11959;49.418;8.728;2023-05-10T15:56:27;18.30;99.90
23562;DHT22;11959;49.418;8.728;2023-05-10T15:58:53;18.30;99.90
23562;DHT22;11959;49.418;8.728;2023-05-10T16:01:19;18.30;99.90
23562;DHT22;11959;49.418;8.728;2023-05-10T16:03:47;18.50;99.90
23562;DHT22;11959;49.418;8.728;2023-05-10T16:06:17;18.60;99.90